sensor_id;sensor_type;location;lat;lon;timestamp;temperature;humidity
5280;DHT22;2663;53.588;10.010;2022-12-07T00:01:12;4.90;99.90
5280;DHT22;2663;53.588;10.010;2022-12-07T00:03:41;4.90;99.90
5280;DHT22;2663;53.588;10.010;2022-12-07T00:06:10;5.00;99.90
5280;DHT22;2663;53.588;10.010;2022-12-07T00:08:38;5.00;99.90
5280;DHT22;2663;53.588;10.010;2022-12-07T00:11:07;5.00;99.90
5280;DHT22;2663;53.588;10.010;2022-12-07T00:13:35;5.00;99.90
5280;DHT22;2663;53.588;10.010;2022-12-07T00:16:14;5.00;99.90
5280;DHT22;2663;53.588;10.010;2022-12-07T00:18:42;5.10;99.90
5280;DHT22;2663;53.588;10.010;2022-12-07T00:23:40;5.20;99.90
5280;DHT22;2663;53.588;10.010;2022-12-07T00:26:27;5.10;99.90
5280;DHT22;2663;53.588;10.010;2022-12-07T00:28:56;5.20;99.90
5280;DHT22;2663;53.588;10.010;2022-12-07T00:31:27;5.20;99.90
5280;DHT22;2663;53.588;10.010;2022-12-07T00:33:57;5.10;99.90
5280;DHT22;2663;53.588;10.010;2022-12-07T00:36:24;5.00;99.90
5280;DHT22;2663;53.588;10.010;2022-12-07T00:38:54;4.90;99.90
5280;DHT22;2663;53.588;10.010;2022-12-07T00:41:23;5.00;99.90
5280;DHT22;2663;53.588;10.010;2022-12-07T00:43:50;5.00;99.90
5280;DHT22;2663;53.588;10.010;2022-12-07T00:46:19;5.00;99.90
5280;DHT22;2663;53.588;10.010;2022-12-07T00:48:47;5.00;99.90
5280;DHT22;2663;53.588;10.010;2022-12-07T00:51:15;5.00;99.90
5280;DHT22;2663;53.588;10.010;2022-12-07T00:53:42;5.00;99.90
5280;DHT22;2663;53.588;10.010;2022-12-07T00:56:12;5.00;99.90
5280;DHT22;2663;53.588;10.010;2022-12-07T00:58:40;5.00;99.90
5280;DHT22;2663;53.588;10.010;2022-12-07T01:01:08;5.20;99.90
5280;DHT22;2663;53.588;10.010;2022-12-07T01:03:36;5.20;99.90
5280;DHT22;2663;53.588;10.010;2022-12-07T01:06:04;5.00;99.90
5280;DHT22;2663;53.588;10.010;2022-12-07T01:08:31;5.00;99.90
5280;DHT22;2663;53.588;10.010;2022-12-07T01:11:04;5.10;99.90
5280;DHT22;2663;53.588;10.010;2022-12-07T01:13:32;5.10;99.90
5280;DHT22;2663;53.588;10.010;2022-12-07T01:16:00;5.10;99.90
5280;DHT22;2663;53.588;10.010;2022-12-07T01:18:29;5.10;99.90
5280;DHT22;2663;53.588;10.010;2022-12-07T01:21:04;5.20;99.90
5280;DHT22;2663;53.588;10.010;2022-12-07T01:23:31;5.00;99.90
5280;DHT22;2663;53.588;10.010;2022-12-07T01:26:00;5.00;99.90
5280;DHT22;2663;53.588;10.010;2022-12-07T01:28:27;5.00;99.90
5280;DHT22;2663;53.588;10.010;2022-12-07T01:30:58;5.00;99.90
5280;DHT22;2663;53.588;10.010;2022-12-07T01:33:27;5.00;99.90
5280;DHT22;2663;53.588;10.010;2022-12-07T01:36:13;4.90;99.90
5280;DHT22;2663;53.588;10.010;2022-12-07T01:38:40;4.90;99.90
5280;DHT22;2663;53.588;10.010;2022-12-07T01:41:07;4.90;99.90
5280;DHT22;2663;53.588;10.010;2022-12-07T01:43:35;5.00;99.90
5280;DHT22;2663;53.588;10.010;2022-12-07T01:46:03;5.10;99.90
5280;DHT22;2663;53.588;10.010;2022-12-07T01:48:32;5.00;99.90
5280;DHT22;2663;53.588;10.010;2022-12-07T01:51:03;5.00;99.90
5280;DHT22;2663;53.588;10.010;2022-12-07T01:53:32;5.00;99.90
5280;DHT22;2663;53.588;10.010;2022-12-07T01:56:01;5.00;99.90
5280;DHT22;2663;53.588;10.010;2022-12-07T01:58:28;5.00;99.90
5280;DHT22;2663;53.588;10.010;2022-12-07T02:00:55;5.10;99.90
5280;DHT22;2663;53.588;10.010;2022-12-07T02:03:32;5.00;99.90
5280;DHT22;2663;53.588;10.010;2022-12-07T02:06:00;4.90;99.90
5280;DHT22;2663;53.588;10.010;2022-12-07T02:08:27;5.00;99.90
5280;DHT22;2663;53.588;10.010;2022-12-07T02:10:54;5.00;99.90
5280;DHT22;2663;53.588;10.010;2022-12-07T02:13:26;4.40;99.90
5280;DHT22;2663;53.588;10.010;2022-12-07T02:21:52;4.90;99.90
5280;DHT22;2663;53.588;10.010;2022-12-07T02:30:31;4.80;99.90
5280;DHT22;2663;53.588;10.010;2022-12-07T02:33:06;4.80;99.90
5280;DHT22;2663;53.588;10.010;2022-12-07T02:38:26;4.80;99.90
5280;DHT22;2663;53.588;10.010;2022-12-07T02:41:02;4.80;99.90
5280;DHT22;2663;53.588;10.010;2022-12-07T02:43:35;4.70;99.90
5280;DHT22;2663;53.588;10.010;2022-12-07T02:46:08;4.70;99.90
5280;DHT22;2663;53.588;10.010;2022-12-07T02:48:37;4.70;99.90
5280;DHT22;2663;53.588;10.010;2022-12-07T02:51:05;4.70;99.90
5280;DHT22;2663;53.588;10.010;2022-12-07T02:53:37;4.70;99.90
5280;DHT22;2663;53.588;10.010;2022-12-07T02:59:02;4.70;99.90
5280;DHT22;2663;53.588;10.010;2022-12-07T03:01:50;4.70;99.90
5280;DHT22;2663;53.588;10.010;2022-12-07T03:04:45;4.70;99.90
5280;DHT22;2663;53.588;10.010;2022-12-07T03:18:13;4.50;99.90
5280;DHT22;2663;53.588;10.010;2022-12-07T03:20:42;4.50;99.90
5280;DHT22;2663;53.588;10.010;2022-12-07T03:23:10;4.50;99.90
5280;DHT22;2663;53.588;10.010;2022-12-07T03:25:42;4.50;99.90
5280;DHT22;2663;53.588;10.010;2022-12-07T03:28:11;4.30;99.90
5280;DHT22;2663;53.588;10.010;2022-12-07T03:30:46;4.30;99.90
5280;DHT22;2663;53.588;10.010;2022-12-07T03:33:30;4.30;99.90
5280;DHT22;2663;53.588;10.010;2022-12-07T03:36:06;4.30;99.90
5280;DHT22;2663;53.588;10.010;2022-12-07T03:38:41;4.20;99.90
5280;DHT22;2663;53.588;10.010;2022-12-07T03:41:14;4.20;99.90
5280;DHT22;2663;53.588;10.010;2022-12-07T03:43:43;4.30;99.90
5280;DHT22;2663;53.588;10.010;2022-12-07T03:47:31;4.20;99.90
5280;DHT22;2663;53.588;10.010;2022-12-07T03:54:59;4.20;99.90
5280;DHT22;2663;53.588;10.010;2022-12-07T03:57:29;4.10;99.90
5280;DHT22;2663;53.588;10.010;2022-12-07T03:59:57;4.20;99.90
5280;DHT22;2663;53.588;10.010;2022-12-07T04:02:26;4.20;99.90
5280;DHT22;2663;53.588;10.010;2022-12-07T04:04:55;4.20;99.90
5280;DHT22;2663;53.588;10.010;2022-12-07T04:07:22;4.20;99.90
5280;DHT22;2663;53.588;10.010;2022-12-07T04:09:48;4.20;99.90
5280;DHT22;2663;53.588;10.010;2022-12-07T04:12:15;4.20;99.90
5280;DHT22;2663;53.588;10.010;2022-12-07T04:14:42;4.20;99.90
5280;DHT22;2663;53.588;10.010;2022-12-07T04:17:08;4.20;99.90
5280;DHT22;2663;53.588;10.010;2022-12-07T04:19:35;4.10;99.90
5280;DHT22;2663;53.588;10.010;2022-12-07T04:22:03;4.10;99.90
5280;DHT22;2663;53.588;10.010;2022-12-07T04:24:31;4.10;99.90
5280;DHT22;2663;53.588;10.010;2022-12-07T04:26:58;4.10;99.90
5280;DHT22;2663;53.588;10.010;2022-12-07T04:29:25;4.00;99.90
5280;DHT22;2663;53.588;10.010;2022-12-07T04:31:52;4.10;99.90
5280;DHT22;2663;53.588;10.010;2022-12-07T04:34:19;4.00;99.90
5280;DHT22;2663;53.588;10.010;2022-12-07T04:36:47;4.00;99.90
5280;DHT22;2663;53.588;10.010;2022-12-07T04:39:20;3.90;99.90
5280;DHT22;2663;53.588;10.010;2022-12-07T04:41:47;4.00;99.90
5280;DHT22;2663;53.588;10.010;2022-12-07T04:44:15;3.90;99.90
5280;DHT22;2663;53.588;10.010;2022-12-07T04:46:42;3.90;99.90
5280;DHT22;2663;53.588;10.010;2022-12-07T04:49:10;3.90;99.90
5280;DHT22;2663;53.588;10.010;2022-12-07T04:51:37;3.80;99.90
5280;DHT22;2663;53.588;10.010;2022-12-07T04:54:04;4.00;99.90
5280;DHT22;2663;53.588;10.010;2022-12-07T04:56:32;3.90;99.90
5280;DHT22;2663;53.588;10.010;2022-12-07T04:58:58;3.90;99.90
5280;DHT22;2663;53.588;10.010;2022-12-07T05:01:25;3.90;99.90
5280;DHT22;2663;53.588;10.010;2022-12-07T05:03:51;3.90;99.90
5280;DHT22;2663;53.588;10.010;2022-12-07T05:06:19;3.90;99.90
5280;DHT22;2663;53.588;10.010;2022-12-07T05:08:45;4.00;99.90
5280;DHT22;2663;53.588;10.010;2022-12-07T05:11:13;4.00;99.90
5280;DHT22;2663;53.588;10.010;2022-12-07T05:14:00;4.00;99.90
5280;DHT22;2663;53.588;10.010;2022-12-07T05:16:27;4.10;99.90
5280;DHT22;2663;53.588;10.010;2022-12-07T05:18:54;4.10;99.90
5280;DHT22;2663;53.588;10.010;2022-12-07T05:21:21;4.20;99.90
5280;DHT22;2663;53.588;10.010;2022-12-07T05:23:48;4.20;99.90
5280;DHT22;2663;53.588;10.010;2022-12-07T05:26:15;4.20;99.90
5280;DHT22;2663;53.588;10.010;2022-12-07T05:28:41;4.20;99.90
5280;DHT22;2663;53.588;10.010;2022-12-07T05:31:08;4.20;99.90
5280;DHT22;2663;53.588;10.010;2022-12-07T05:33:35;4.30;99.90
5280;DHT22;2663;53.588;10.010;2022-12-07T05:36:02;4.10;99.90
5280;DHT22;2663;53.588;10.010;2022-12-07T05:38:32;4.10;99.90
5280;DHT22;2663;53.588;10.010;2022-12-07T05:41:03;4.10;99.90
5280;DHT22;2663;53.588;10.010;2022-12-07T05:43:30;4.20;99.90
5280;DHT22;2663;53.588;10.010;2022-12-07T05:45:57;4.20;99.90
5280;DHT22;2663;53.588;10.010;2022-12-07T05:48:24;4.20;99.90
5280;DHT22;2663;53.588;10.010;2022-12-07T05:50:52;4.20;99.90
5280;DHT22;2663;53.588;10.010;2022-12-07T05:53:19;3.90;99.90
5280;DHT22;2663;53.588;10.010;2022-12-07T05:55:49;4.10;99.90
5280;DHT22;2663;53.588;10.010;2022-12-07T05:58:15;4.20;99.90
5280;DHT22;2663;53.588;10.010;2022-12-07T06:01:01;4.20;99.90
5280;DHT22;2663;53.588;10.010;2022-12-07T06:03:27;4.10;99.90
5280;DHT22;2663;53.588;10.010;2022-12-07T06:05:54;4.10;99.90
5280;DHT22;2663;53.588;10.010;2022-12-07T06:08:21;4.10;99.90
5280;DHT22;2663;53.588;10.010;2022-12-07T06:10:48;4.20;99.90
5280;DHT22;2663;53.588;10.010;2022-12-07T06:13:34;4.30;99.90
5280;DHT22;2663;53.588;10.010;2022-12-07T06:16:01;4.30;99.90
5280;DHT22;2663;53.588;10.010;2022-12-07T06:18:28;4.30;99.90
5280;DHT22;2663;53.588;10.010;2022-12-07T06:20:54;4.20;99.90
5280;DHT22;2663;53.588;10.010;2022-12-07T06:23:21;4.10;99.90
5280;DHT22;2663;53.588;10.010;2022-12-07T06:25:48;4.20;99.90
5280;DHT22;2663;53.588;10.010;2022-12-07T06:28:14;4.20;99.90
5280;DHT22;2663;53.588;10.010;2022-12-07T06:30:41;4.20;99.90
5280;DHT22;2663;53.588;10.010;2022-12-07T06:33:07;4.20;99.90
5280;DHT22;2663;53.588;10.010;2022-12-07T06:35:34;4.30;99.90
5280;DHT22;2663;53.588;10.010;2022-12-07T06:38:01;4.30;99.90
5280;DHT22;2663;53.588;10.010;2022-12-07T06:40:27;4.40;99.90
5280;DHT22;2663;53.588;10.010;2022-12-07T06:42:54;4.50;99.90
5280;DHT22;2663;53.588;10.010;2022-12-07T06:45:21;4.60;99.90
5280;DHT22;2663;53.588;10.010;2022-12-07T06:47:47;5.70;99.90
5280;DHT22;2663;53.588;10.010;2022-12-07T06:50:14;6.90;99.90
5280;DHT22;2663;53.588;10.010;2022-12-07T06:52:41;7.50;99.90
5280;DHT22;2663;53.588;10.010;2022-12-07T06:55:07;7.20;99.90
5280;DHT22;2663;53.588;10.010;2022-12-07T06:57:34;6.30;99.90
5280;DHT22;2663;53.588;10.010;2022-12-07T07:00:01;5.70;99.90
5280;DHT22;2663;53.588;10.010;2022-12-07T07:02:28;5.10;99.90
5280;DHT22;2663;53.588;10.010;2022-12-07T07:04:55;4.90;99.90
5280;DHT22;2663;53.588;10.010;2022-12-07T07:07:22;4.70;99.90
5280;DHT22;2663;53.588;10.010;2022-12-07T07:09:49;4.60;99.90
5280;DHT22;2663;53.588;10.010;2022-12-07T07:12:15;4.50;99.90
5280;DHT22;2663;53.588;10.010;2022-12-07T07:14:42;4.40;99.90
5280;DHT22;2663;53.588;10.010;2022-12-07T07:17:09;4.40;99.90
5280;DHT22;2663;53.588;10.010;2022-12-07T07:19:36;4.40;99.90
5280;DHT22;2663;53.588;10.010;2022-12-07T07:22:04;4.40;99.90
5280;DHT22;2663;53.588;10.010;2022-12-07T07:24:31;4.40;99.90
5280;DHT22;2663;53.588;10.010;2022-12-07T07:26:57;4.40;99.90
5280;DHT22;2663;53.588;10.010;2022-12-07T07:29:24;4.40;99.90
5280;DHT22;2663;53.588;10.010;2022-12-07T07:31:50;4.30;99.90
5280;DHT22;2663;53.588;10.010;2022-12-07T07:34:17;4.20;99.90
5280;DHT22;2663;53.588;10.010;2022-12-07T07:36:44;4.30;99.90
5280;DHT22;2663;53.588;10.010;2022-12-07T07:39:10;4.30;99.90
5280;DHT22;2663;53.588;10.010;2022-12-07T07:41:39;4.30;99.90
5280;DHT22;2663;53.588;10.010;2022-12-07T07:44:05;4.40;99.90
5280;DHT22;2663;53.588;10.010;2022-12-07T07:46:32;4.50;99.90
5280;DHT22;2663;53.588;10.010;2022-12-07T07:48:59;4.50;99.90
5280;DHT22;2663;53.588;10.010;2022-12-07T07:51:26;4.40;99.90
5280;DHT22;2663;53.588;10.010;2022-12-07T07:53:53;4.40;99.90
5280;DHT22;2663;53.588;10.010;2022-12-07T07:56:20;4.50;99.90
5280;DHT22;2663;53.588;10.010;2022-12-07T07:58:47;4.50;99.90
5280;DHT22;2663;53.588;10.010;2022-12-07T08:01:14;4.60;99.90
5280;DHT22;2663;53.588;10.010;2022-12-07T08:03:41;4.60;99.90
5280;DHT22;2663;53.588;10.010;2022-12-07T08:06:08;4.60;99.90
5280;DHT22;2663;53.588;10.010;2022-12-07T08:08:34;4.50;99.90
5280;DHT22;2663;53.588;10.010;2022-12-07T08:11:05;4.50;99.90
5280;DHT22;2663;53.588;10.010;2022-12-07T08:13:32;4.60;99.90
5280;DHT22;2663;53.588;10.010;2022-12-07T08:16:06;4.50;99.90
5280;DHT22;2663;53.588;10.010;2022-12-07T08:18:38;4.50;99.90
5280;DHT22;2663;53.588;10.010;2022-12-07T08:21:06;4.60;99.90
5280;DHT22;2663;53.588;10.010;2022-12-07T08:23:33;4.60;99.90
5280;DHT22;2663;53.588;10.010;2022-12-07T08:26:08;4.50;99.90
5280;DHT22;2663;53.588;10.010;2022-12-07T08:28:36;4.60;99.90
5280;DHT22;2663;53.588;10.010;2022-12-07T08:31:05;4.60;99.90
5280;DHT22;2663;53.588;10.010;2022-12-07T08:33:33;4.60;99.90
5280;DHT22;2663;53.588;10.010;2022-12-07T08:36:09;4.60;99.90
5280;DHT22;2663;53.588;10.010;2022-12-07T08:38:37;4.60;99.90
5280;DHT22;2663;53.588;10.010;2022-12-07T08:41:04;4.40;99.90
5280;DHT22;2663;53.588;10.010;2022-12-07T08:43:31;4.70;99.90
5280;DHT22;2663;53.588;10.010;2022-12-07T08:46:09;4.70;99.90
5280;DHT22;2663;53.588;10.010;2022-12-07T08:48:45;4.70;99.90
5280;DHT22;2663;53.588;10.010;2022-12-07T08:51:13;4.70;99.90
5280;DHT22;2663;53.588;10.010;2022-12-07T08:53:40;4.70;99.90
5280;DHT22;2663;53.588;10.010;2022-12-07T08:56:07;4.70;99.90
5280;DHT22;2663;53.588;10.010;2022-12-07T08:58:36;4.70;99.90
5280;DHT22;2663;53.588;10.010;2022-12-07T09:01:04;4.70;99.90
5280;DHT22;2663;53.588;10.010;2022-12-07T09:03:31;4.80;99.90
5280;DHT22;2663;53.588;10.010;2022-12-07T09:05:59;4.80;99.90
5280;DHT22;2663;53.588;10.010;2022-12-07T09:08:34;4.90;99.90
5280;DHT22;2663;53.588;10.010;2022-12-07T09:11:02;4.90;99.90
5280;DHT22;2663;53.588;10.010;2022-12-07T09:13:29;5.00;99.90
5280;DHT22;2663;53.588;10.010;2022-12-07T09:15:56;5.00;99.90
5280;DHT22;2663;53.588;10.010;2022-12-07T09:18:23;5.10;99.90
5280;DHT22;2663;53.588;10.010;2022-12-07T09:20:51;5.00;99.90
5280;DHT22;2663;53.588;10.010;2022-12-07T09:23:17;5.00;99.90
5280;DHT22;2663;53.588;10.010;2022-12-07T09:25:44;5.00;99.90
5280;DHT22;2663;53.588;10.010;2022-12-07T09:28:11;5.10;99.90
5280;DHT22;2663;53.588;10.010;2022-12-07T09:30:37;5.10;99.90
5280;DHT22;2663;53.588;10.010;2022-12-07T09:33:24;5.10;99.90
5280;DHT22;2663;53.588;10.010;2022-12-07T09:35:51;5.00;99.90
5280;DHT22;2663;53.588;10.010;2022-12-07T09:38:19;5.00;99.90
5280;DHT22;2663;53.588;10.010;2022-12-07T09:40:47;5.10;99.90
5280;DHT22;2663;53.588;10.010;2022-12-07T09:43:15;5.20;99.90
5280;DHT22;2663;53.588;10.010;2022-12-07T09:45:42;5.20;99.90
5280;DHT22;2663;53.588;10.010;2022-12-07T09:48:24;5.20;99.90
5280;DHT22;2663;53.588;10.010;2022-12-07T09:50:53;5.10;99.90
5280;DHT22;2663;53.588;10.010;2022-12-07T09:53:25;5.10;99.90
5280;DHT22;2663;53.588;10.010;2022-12-07T09:55:53;5.20;99.90
5280;DHT22;2663;53.588;10.010;2022-12-07T09:58:23;5.20;99.90
5280;DHT22;2663;53.588;10.010;2022-12-07T10:00:55;5.10;99.90
5280;DHT22;2663;53.588;10.010;2022-12-07T10:03:23;5.10;99.90
5280;DHT22;2663;53.588;10.010;2022-12-07T10:05:51;5.00;99.90
5280;DHT22;2663;53.588;10.010;2022-12-07T10:08:18;5.10;99.90
5280;DHT22;2663;53.588;10.010;2022-12-07T10:10:50;5.10;99.90
5280;DHT22;2663;53.588;10.010;2022-12-07T10:13:33;5.10;99.90
5280;DHT22;2663;53.588;10.010;2022-12-07T10:16:00;5.10;99.90
5280;DHT22;2663;53.588;10.010;2022-12-07T10:23:40;5.10;99.90
5280;DHT22;2663;53.588;10.010;2022-12-07T10:26:30;5.10;99.90
5280;DHT22;2663;53.588;10.010;2022-12-07T10:29:36;5.10;99.90
5280;DHT22;2663;53.588;10.010;2022-12-07T10:32:32;5.10;99.90
5280;DHT22;2663;53.588;10.010;2022-12-07T10:35:19;5.70;99.90
5280;DHT22;2663;53.588;10.010;2022-12-07T10:37:47;6.50;99.90
5280;DHT22;2663;53.588;10.010;2022-12-07T10:40:35;6.10;99.90
5280;DHT22;2663;53.588;10.010;2022-12-07T10:43:17;5.70;99.90
5280;DHT22;2663;53.588;10.010;2022-12-07T10:48:58;5.30;99.90
5280;DHT22;2663;53.588;10.010;2022-12-07T10:51:50;5.20;99.90
5280;DHT22;2663;53.588;10.010;2022-12-07T10:57:17;5.10;99.90
5280;DHT22;2663;53.588;10.010;2022-12-07T11:00:02;5.20;99.90
5280;DHT22;2663;53.588;10.010;2022-12-07T11:02:45;5.10;99.90
5280;DHT22;2663;53.588;10.010;2022-12-07T11:11:03;5.10;99.90
5280;DHT22;2663;53.588;10.010;2022-12-07T11:16:52;5.10;99.90
5280;DHT22;2663;53.588;10.010;2022-12-07T11:19:49;5.30;99.90
5280;DHT22;2663;53.588;10.010;2022-12-07T11:30:34;5.20;99.90
5280;DHT22;2663;53.588;10.010;2022-12-07T11:33:19;5.10;99.90
5280;DHT22;2663;53.588;10.010;2022-12-07T11:38:44;5.20;99.90
5280;DHT22;2663;53.588;10.010;2022-12-07T11:41:12;5.30;99.90
5280;DHT22;2663;53.588;10.010;2022-12-07T11:44:01;5.30;99.90
5280;DHT22;2663;53.588;10.010;2022-12-07T11:46:56;5.40;99.90
5280;DHT22;2663;53.588;10.010;2022-12-07T11:51:54;5.30;99.90
5280;DHT22;2663;53.588;10.010;2022-12-07T11:54:27;5.20;99.90
5280;DHT22;2663;53.588;10.010;2022-12-07T11:56:56;5.30;99.90
5280;DHT22;2663;53.588;10.010;2022-12-07T11:59:38;5.30;99.90
5280;DHT22;2663;53.588;10.010;2022-12-07T12:02:15;5.30;99.90
5280;DHT22;2663;53.588;10.010;2022-12-07T12:04:55;5.40;99.90
5280;DHT22;2663;53.588;10.010;2022-12-07T12:07:26;5.50;99.90
5280;DHT22;2663;53.588;10.010;2022-12-07T12:10:21;5.50;99.90
5280;DHT22;2663;53.588;10.010;2022-12-07T12:19:01;5.40;99.90
5280;DHT22;2663;53.588;10.010;2022-12-07T12:21:29;5.40;99.90
5280;DHT22;2663;53.588;10.010;2022-12-07T12:26:28;5.40;99.90
5280;DHT22;2663;53.588;10.010;2022-12-07T12:28:59;5.50;99.90
5280;DHT22;2663;53.588;10.010;2022-12-07T12:33:59;5.60;99.90
5280;DHT22;2663;53.588;10.010;2022-12-07T12:36:47;5.50;99.90
5280;DHT22;2663;53.588;10.010;2022-12-07T12:39:16;5.70;99.90
5280;DHT22;2663;53.588;10.010;2022-12-07T12:51:53;5.60;99.90
5280;DHT22;2663;53.588;10.010;2022-12-07T13:02:37;5.40;99.90
5280;DHT22;2663;53.588;10.010;2022-12-07T13:31:45;5.90;99.90
5280;DHT22;2663;53.588;10.010;2022-12-07T13:34:40;5.80;99.90
5280;DHT22;2663;53.588;10.010;2022-12-07T13:39:52;5.70;99.90
5280;DHT22;2663;53.588;10.010;2022-12-07T13:42:24;5.50;99.90
5280;DHT22;2663;53.588;10.010;2022-12-07T13:44:52;5.50;99.90
5280;DHT22;2663;53.588;10.010;2022-12-07T13:47:34;5.40;99.90
5280;DHT22;2663;53.588;10.010;2022-12-07T13:50:25;5.50;99.90
5280;DHT22;2663;53.588;10.010;2022-12-07T13:52:56;5.60;99.90
5280;DHT22;2663;53.588;10.010;2022-12-07T13:55:23;5.70;99.90
5280;DHT22;2663;53.588;10.010;2022-12-07T13:57:51;5.60;99.90
5280;DHT22;2663;53.588;10.010;2022-12-07T14:00:19;5.40;99.90
5280;DHT22;2663;53.588;10.010;2022-12-07T14:02:58;5.40;99.90
5280;DHT22;2663;53.588;10.010;2022-12-07T14:05:34;5.50;99.90
5280;DHT22;2663;53.588;10.010;2022-12-07T14:08:04;5.50;99.90
5280;DHT22;2663;53.588;10.010;2022-12-07T14:13:38;5.70;99.50
5280;DHT22;2663;53.588;10.010;2022-12-07T14:16:28;5.70;99.40
5280;DHT22;2663;53.588;10.010;2022-12-07T14:18:57;5.60;99.60
5280;DHT22;2663;53.588;10.010;2022-12-07T14:21:27;5.60;99.30
5280;DHT22;2663;53.588;10.010;2022-12-07T14:24:19;5.50;99.20
5280;DHT22;2663;53.588;10.010;2022-12-07T14:26:50;5.40;99.80
5280;DHT22;2663;53.588;10.010;2022-12-07T14:29:30;5.40;99.80
5280;DHT22;2663;53.588;10.010;2022-12-07T14:31:59;5.50;99.50
5280;DHT22;2663;53.588;10.010;2022-12-07T14:34:40;5.70;99.50
5280;DHT22;2663;53.588;10.010;2022-12-07T14:37:09;5.60;99.10
5280;DHT22;2663;53.588;10.010;2022-12-07T14:39:37;5.60;99.10
5280;DHT22;2663;53.588;10.010;2022-12-07T14:42:03;5.60;99.20
5280;DHT22;2663;53.588;10.010;2022-12-07T14:44:30;5.60;98.90
5280;DHT22;2663;53.588;10.010;2022-12-07T14:47:01;5.40;99.30
5280;DHT22;2663;53.588;10.010;2022-12-07T14:49:48;5.40;99.20
5280;DHT22;2663;53.588;10.010;2022-12-07T14:52:20;5.40;99.20
5280;DHT22;2663;53.588;10.010;2022-12-07T14:55:14;5.40;99.50
5280;DHT22;2663;53.588;10.010;2022-12-07T14:57:42;5.30;99.50
5280;DHT22;2663;53.588;10.010;2022-12-07T15:00:14;5.40;99.50
5280;DHT22;2663;53.588;10.010;2022-12-07T15:02:41;5.40;99.90
5280;DHT22;2663;53.588;10.010;2022-12-07T15:05:07;5.30;99.80
5280;DHT22;2663;53.588;10.010;2022-12-07T15:07:41;5.30;99.70
5280;DHT22;2663;53.588;10.010;2022-12-07T15:10:17;5.30;99.90
5280;DHT22;2663;53.588;10.010;2022-12-07T15:12:49;5.20;99.90
5280;DHT22;2663;53.588;10.010;2022-12-07T15:15:16;5.20;99.90
5280;DHT22;2663;53.588;10.010;2022-12-07T15:17:43;5.10;99.90
5280;DHT22;2663;53.588;10.010;2022-12-07T15:20:13;5.20;99.90
5280;DHT22;2663;53.588;10.010;2022-12-07T15:22:40;5.20;99.90
5280;DHT22;2663;53.588;10.010;2022-12-07T15:25:09;5.20;99.80
5280;DHT22;2663;53.588;10.010;2022-12-07T15:27:38;4.60;99.80
5280;DHT22;2663;53.588;10.010;2022-12-07T15:30:05;5.10;99.80
5280;DHT22;2663;53.588;10.010;2022-12-07T15:32:32;5.10;99.50
5280;DHT22;2663;53.588;10.010;2022-12-07T15:34:59;5.30;99.90
5280;DHT22;2663;53.588;10.010;2022-12-07T15:37:26;5.60;99.90
5280;DHT22;2663;53.588;10.010;2022-12-07T15:39:53;5.70;99.30
5280;DHT22;2663;53.588;10.010;2022-12-07T15:42:20;6.00;99.40
5280;DHT22;2663;53.588;10.010;2022-12-07T15:44:46;5.90;98.60
5280;DHT22;2663;53.588;10.010;2022-12-07T15:47:38;5.80;98.60
5280;DHT22;2663;53.588;10.010;2022-12-07T15:50:25;5.90;98.40
5280;DHT22;2663;53.588;10.010;2022-12-07T15:52:52;5.50;98.90
5280;DHT22;2663;53.588;10.010;2022-12-07T15:55:18;5.80;98.50
5280;DHT22;2663;53.588;10.010;2022-12-07T15:57:45;6.00;97.20
5280;DHT22;2663;53.588;10.010;2022-12-07T16:00:12;5.80;97.10
5280;DHT22;2663;53.588;10.010;2022-12-07T16:02:40;5.50;97.90
5280;DHT22;2663;53.588;10.010;2022-12-07T16:05:06;5.30;97.90
5280;DHT22;2663;53.588;10.010;2022-12-07T16:07:33;5.10;98.40
5280;DHT22;2663;53.588;10.010;2022-12-07T16:10:00;5.10;98.80
5280;DHT22;2663;53.588;10.010;2022-12-07T16:12:26;4.90;99.10
5280;DHT22;2663;53.588;10.010;2022-12-07T16:14:53;4.90;99.20
5280;DHT22;2663;53.588;10.010;2022-12-07T16:17:20;4.90;99.50
5280;DHT22;2663;53.588;10.010;2022-12-07T16:19:46;4.90;99.70
5280;DHT22;2663;53.588;10.010;2022-12-07T16:22:13;5.00;99.60
5280;DHT22;2663;53.588;10.010;2022-12-07T16:24:40;5.10;99.40
5280;DHT22;2663;53.588;10.010;2022-12-07T16:27:07;5.00;99.30
5280;DHT22;2663;53.588;10.010;2022-12-07T16:29:34;5.00;99.60
5280;DHT22;2663;53.588;10.010;2022-12-07T16:32:00;5.00;99.50
5280;DHT22;2663;53.588;10.010;2022-12-07T16:34:27;5.20;99.90
5280;DHT22;2663;53.588;10.010;2022-12-07T16:36:54;5.20;99.80
5280;DHT22;2663;53.588;10.010;2022-12-07T16:39:30;5.20;99.90
5280;DHT22;2663;53.588;10.010;2022-12-07T16:41:56;5.10;99.90
5280;DHT22;2663;53.588;10.010;2022-12-07T16:44:23;5.20;99.90
5280;DHT22;2663;53.588;10.010;2022-12-07T16:46:50;5.40;99.90
5280;DHT22;2663;53.588;10.010;2022-12-07T16:49:16;5.50;99.90
5280;DHT22;2663;53.588;10.010;2022-12-07T16:51:44;5.40;99.90
5280;DHT22;2663;53.588;10.010;2022-12-07T16:54:11;5.30;99.90
5280;DHT22;2663;53.588;10.010;2022-12-07T16:56:39;5.20;99.90
5280;DHT22;2663;53.588;10.010;2022-12-07T16:59:05;5.10;99.90
5280;DHT22;2663;53.588;10.010;2022-12-07T17:01:32;5.00;99.90
5280;DHT22;2663;53.588;10.010;2022-12-07T17:04:00;4.90;99.90
5280;DHT22;2663;53.588;10.010;2022-12-07T17:06:28;4.80;99.90
5280;DHT22;2663;53.588;10.010;2022-12-07T17:08:56;4.80;99.90
5280;DHT22;2663;53.588;10.010;2022-12-07T17:11:25;4.80;99.90
5280;DHT22;2663;53.588;10.010;2022-12-07T17:13:52;4.80;99.90
5280;DHT22;2663;53.588;10.010;2022-12-07T17:16:38;4.70;99.90
5280;DHT22;2663;53.588;10.010;2022-12-07T17:19:10;4.60;99.90
5280;DHT22;2663;53.588;10.010;2022-12-07T17:21:37;4.70;99.90
5280;DHT22;2663;53.588;10.010;2022-12-07T17:24:06;4.70;99.90
5280;DHT22;2663;53.588;10.010;2022-12-07T17:26:33;4.70;99.90
5280;DHT22;2663;53.588;10.010;2022-12-07T17:29:05;4.70;99.90
5280;DHT22;2663;53.588;10.010;2022-12-07T17:31:33;4.50;99.90
5280;DHT22;2663;53.588;10.010;2022-12-07T17:34:00;4.50;99.90
5280;DHT22;2663;53.588;10.010;2022-12-07T17:36:29;4.40;99.90
5280;DHT22;2663;53.588;10.010;2022-12-07T17:38:57;4.50;99.90
5280;DHT22;2663;53.588;10.010;2022-12-07T17:41:25;4.50;99.90
5280;DHT22;2663;53.588;10.010;2022-12-07T17:44:16;4.50;99.90
5280;DHT22;2663;53.588;10.010;2022-12-07T17:46:44;4.50;99.90
5280;DHT22;2663;53.588;10.010;2022-12-07T17:49:11;4.50;99.90
5280;DHT22;2663;53.588;10.010;2022-12-07T17:51:38;4.70;99.90
5280;DHT22;2663;53.588;10.010;2022-12-07T17:54:23;4.90;99.90
5280;DHT22;2663;53.588;10.010;2022-12-07T17:56:50;5.30;99.40
5280;DHT22;2663;53.588;10.010;2022-12-07T17:59:17;5.30;98.90
5280;DHT22;2663;53.588;10.010;2022-12-07T18:01:44;5.30;98.50
5280;DHT22;2663;53.588;10.010;2022-12-07T18:04:11;5.20;99.00
5280;DHT22;2663;53.588;10.010;2022-12-07T18:06:38;5.10;99.10
5280;DHT22;2663;53.588;10.010;2022-12-07T18:09:06;5.10;99.40
5280;DHT22;2663;53.588;10.010;2022-12-07T18:11:33;5.10;99.80
5280;DHT22;2663;53.588;10.010;2022-12-07T18:14:01;5.00;99.90
5280;DHT22;2663;53.588;10.010;2022-12-07T18:16:29;5.00;99.50
5280;DHT22;2663;53.588;10.010;2022-12-07T18:19:00;4.90;99.80
5280;DHT22;2663;53.588;10.010;2022-12-07T18:21:28;5.00;99.70
5280;DHT22;2663;53.588;10.010;2022-12-07T18:23:58;5.00;99.70
5280;DHT22;2663;53.588;10.010;2022-12-07T18:26:28;5.10;99.50
5280;DHT22;2663;53.588;10.010;2022-12-07T18:28:58;5.10;99.40
5280;DHT22;2663;53.588;10.010;2022-12-07T18:31:25;5.10;98.60
5280;DHT22;2663;53.588;10.010;2022-12-07T18:33:52;5.00;99.00
5280;DHT22;2663;53.588;10.010;2022-12-07T18:36:22;4.90;99.60